Artesia, California
Current Conditions -  °F | °C
As of 3:53 AM on Friday 24 Oct 2014 (Local Time) from KFUL Reporting Station
Clear Clear  
Wind Chill: 61°   Ceiling: Unl
Heat Index: 61°   Visibility: 10mi
Dew Point: 51°   Wind: 3mph
Humidity: 70%   Direction: 110°ESE
Pressure: 29.94"   Gusts: NA
Location:  33.86°N, 118.07°W
Report Text: KFUL 241053Z 11003KT 10SM CLR 16/11 A2994 RMK AO2 SLP138 T01610106 $
Loading
Personal Weather Stations






























Interactive Weather Map
Tropical Storm Tracking
New forecast layout! Learn more

10-Day Weather Forecast

Advertisements
Track Severe Weather on mobile